createdAt,value
2018-11-11T00:01:46.601Z,63.03
2018-11-11T00:06:50.850Z,58.77
2018-11-11T00:12:09.615Z,61.77
2018-11-11T00:17:13.487Z,60.03
2018-11-11T00:22:17.374Z,52.60
2018-11-11T00:27:21.257Z,59.60
2018-11-11T00:32:25.127Z,52.50
2018-11-11T00:37:28.726Z,45.40
2018-11-11T00:42:32.588Z,44.00
2018-11-11T00:47:36.424Z,43.17
2018-11-11T00:52:40.319Z,46.90
2018-11-11T00:57:44.553Z,49.10
2018-11-11T01:02:48.419Z,43.77
2018-11-11T01:07:52.283Z,43.73
2018-11-11T01:12:56.171Z,43.20
2018-11-11T01:18:00.071Z,40.83
2018-11-11T01:23:03.705Z,38.93
2018-11-11T01:28:07.479Z,41.40
2018-11-11T01:33:11.379Z,45.60
2018-11-11T01:38:15.235Z,44.03
2018-11-11T01:43:19.091Z,46.20
2018-11-11T01:48:22.947Z,46.03
2018-11-11T01:53:26.819Z,45.23
2018-11-11T01:58:30.426Z,40.80
2018-11-11T02:03:34.214Z,40.73
2018-11-11T02:08:38.080Z,39.30
2018-11-11T02:13:41.964Z,47.03
2018-11-11T02:18:45.864Z,43.03
2018-11-11T02:23:49.739Z,42.03
2018-11-11T02:28:53.606Z,39.60
2018-11-11T02:33:57.467Z,36.63
2018-11-11T02:39:01.084Z,40.47
2018-11-11T02:44:04.910Z,39.30
2018-11-11T02:49:08.769Z,38.63
2018-11-11T02:54:12.898Z,43.63
2018-11-11T02:59:16.750Z,39.83
2018-11-11T03:04:20.651Z,42.17
2018-11-11T03:09:24.483Z,49.83
2018-11-11T03:14:28.371Z,51.13
2018-11-11T03:19:31.975Z,42.23
2018-11-11T03:24:35.833Z,56.20
2018-11-11T03:29:39.696Z,47.80
2018-11-11T03:34:43.542Z,49.47
2018-11-11T03:39:47.153Z,43.23
2018-11-11T03:44:50.661Z,42.00
2018-11-11T03:49:54.190Z,51.57
2018-11-11T03:54:57.976Z,51.87
2018-11-11T04:00:01.855Z,48.97
2018-11-11T04:05:05.875Z,51.33
2018-11-11T04:10:12.165Z,52.50
2018-11-11T04:15:17.380Z,58.83
2018-11-11T04:20:21.197Z,49.67
2018-11-11T04:25:24.953Z,58.13
2018-11-11T04:30:28.943Z,59.17
2018-11-11T04:35:32.815Z,51.53
2018-11-11T04:40:36.663Z,59.73
2018-11-11T04:45:40.542Z,61.50
2018-11-11T04:50:44.390Z,63.37
2018-11-11T04:55:48.001Z,70.63
2018-11-11T05:00:52.239Z,74.17
2018-11-11T05:05:57.966Z,79.57
2018-11-11T05:11:01.833Z,83.93
2018-11-11T05:16:05.707Z,65.47
2018-11-11T05:21:09.609Z,67.73
2018-11-11T05:26:13.471Z,62.53
2018-11-11T05:31:17.327Z,64.67
2018-11-11T05:36:21.185Z,48.27
2018-11-11T05:41:25.010Z,50.27
2018-11-11T05:46:28.791Z,59.10
2018-11-11T05:51:32.663Z,58.23
2018-11-11T05:56:36.522Z,47.43
2018-11-11T06:01:40.413Z,54.93
2018-11-11T06:06:44.295Z,58.87
2018-11-11T06:11:48.195Z,60.23
2018-11-11T06:16:52.090Z,58.03
2018-11-11T06:21:55.698Z,59.77
2018-11-11T06:26:59.466Z,64.20
2018-11-11T06:32:03.383Z,58.47
2018-11-11T06:37:07.237Z,54.83
2018-11-11T06:42:11.180Z,52.57
2018-11-11T06:47:15.047Z,61.73
2018-11-11T06:52:18.948Z,62.10
2018-11-11T06:57:22.815Z,56.23
2018-11-11T07:02:29.750Z,61.70
2018-11-11T07:07:33.286Z,68.30
2018-11-11T07:12:36.859Z,58.47
2018-11-11T07:17:40.369Z,58.47
2018-11-11T07:22:44.463Z,59.17
2018-11-11T07:27:48.326Z,55.87
2018-11-11T07:32:52.292Z,56.00
2018-11-11T07:37:55.906Z,48.90
2018-11-11T07:43:00.865Z,47.00
2018-11-11T07:48:07.357Z,51.73
2018-11-11T07:53:10.982Z,49.80
2018-11-11T07:58:16.533Z,50.93
2018-11-11T08:03:21.814Z,42.73
2018-11-11T08:08:27.148Z,43.83
2018-11-11T08:13:32.466Z,43.47
2018-11-11T08:18:36.498Z,46.10
2018-11-11T08:23:40.110Z,42.17
2018-11-11T08:28:43.905Z,43.70
2018-11-11T08:33:49.019Z,43.07
2018-11-11T08:38:52.675Z,44.20
2018-11-11T08:43:56.187Z,46.87
2018-11-11T08:49:00.055Z,46.80
2018-11-11T08:54:04.138Z,44.47
2018-11-11T08:59:07.953Z,45.87
2018-11-11T09:04:11.766Z,41.83
2018-11-11T09:09:15.626Z,49.17
2018-11-11T09:14:19.238Z,42.53
2018-11-11T09:19:22.759Z,43.63
2018-11-11T09:24:26.605Z,37.93
2018-11-11T09:29:30.282Z,42.20
2018-11-11T09:34:34.003Z,30.90
2018-11-11T09:39:37.659Z,38.17
2018-11-11T09:44:41.426Z,34.77
2018-11-11T09:49:45.356Z,32.97
2018-11-11T09:54:49.275Z,33.80
2018-11-11T09:59:53.316Z,35.83
2018-11-11T10:05:00.788Z,34.00
2018-11-11T10:10:10.372Z,34.43
2018-11-11T10:15:29.559Z,31.43
2018-11-11T10:20:37.284Z,31.43
2018-11-11T10:25:47.620Z,28.20
2018-11-11T10:31:04.378Z,33.17
2018-11-11T10:36:13.572Z,32.07
2018-11-11T10:41:28.807Z,33.47
2018-11-11T10:46:41.646Z,30.33
2018-11-11T10:51:45.507Z,34.00
2018-11-11T10:56:49.362Z,32.83
2018-11-11T11:01:58.703Z,36.10
2018-11-11T11:07:06.415Z,31.23
2018-11-11T11:12:10.345Z,36.60
2018-11-11T11:17:14.235Z,32.47
2018-11-11T11:22:18.116Z,33.30
2018-11-11T11:27:22.142Z,36.57
2018-11-11T11:32:26.001Z,35.50
2018-11-11T11:37:29.830Z,36.93
2018-11-11T11:42:33.753Z,48.00
2018-11-11T11:47:37.839Z,46.07
2018-11-11T11:52:42.152Z,42.20
2018-11-11T11:57:56.175Z,39.73
2018-11-11T12:03:00.218Z,34.27
2018-11-11T12:08:04.427Z,38.03
2018-11-11T12:13:09.261Z,37.60
2018-11-11T12:18:13.117Z,34.77
2018-11-11T12:23:17.194Z,33.10
2018-11-11T12:28:20.832Z,36.70
2018-11-11T12:33:24.694Z,34.30
2018-11-11T12:38:28.612Z,33.37
2018-11-11T12:43:32.483Z,35.73
2018-11-11T12:48:42.747Z,34.20
2018-11-11T12:53:46.591Z,37.00
2018-11-11T12:58:50.510Z,36.13
2018-11-11T13:03:54.371Z,33.57
2018-11-11T13:08:58.334Z,32.63
2018-11-11T13:14:02.224Z,37.47
2018-11-11T13:19:06.849Z,31.73
2018-11-11T13:24:10.716Z,31.40
2018-11-11T13:29:15.040Z,29.63
2018-11-11T13:34:18.903Z,32.13
2018-11-11T13:39:22.767Z,33.87
2018-11-11T13:44:26.722Z,34.07
2018-11-11T13:49:30.610Z,31.80
2018-11-11T13:54:34.535Z,35.50
2018-11-11T13:59:38.447Z,33.33
2018-11-11T14:04:42.304Z,35.47
2018-11-11T14:09:46.157Z,33.27
2018-11-11T14:14:50.026Z,32.33
2018-11-11T14:19:54.141Z,31.43
2018-11-11T14:24:58.020Z,37.00
2018-11-11T14:30:02.011Z,29.00
2018-11-11T14:35:06.557Z,31.90
2018-11-11T14:40:21.620Z,33.60
2018-11-11T14:45:25.858Z,32.07
2018-11-11T14:50:29.794Z,34.70
2018-11-11T14:55:33.661Z,31.13
2018-11-11T15:00:37.514Z,35.60
2018-11-11T15:05:41.411Z,34.10
2018-11-11T15:10:45.331Z,34.07
2018-11-11T15:15:49.240Z,36.97
2018-11-11T15:20:53.224Z,31.90
2018-11-11T15:25:56.978Z,37.67
2018-11-11T15:31:01.522Z,45.40
2018-11-11T15:36:05.624Z,39.40
2018-11-11T15:41:09.925Z,35.57
2018-11-11T15:46:13.821Z,45.27
2018-11-11T15:51:18.473Z,43.20
2018-11-11T15:56:23.975Z,53.37
2018-11-11T16:01:30.035Z,51.67
2018-11-11T16:06:34.910Z,52.97
2018-11-11T16:11:39.448Z,40.60
2018-11-11T16:16:43.845Z,45.70
2018-11-11T16:21:48.500Z,41.50
2018-11-11T16:26:52.847Z,52.37
2018-11-11T16:31:59.175Z,64.10
2018-11-11T16:37:03.109Z,56.47
2018-11-11T16:42:08.133Z,46.53
2018-11-11T16:47:12.861Z,61.07
2018-11-11T16:52:16.778Z,55.17
2018-11-11T16:57:20.930Z,57.20
2018-11-11T17:02:24.947Z,56.17
2018-11-11T17:07:28.870Z,57.30
2018-11-11T17:12:33.085Z,46.97
2018-11-11T17:17:37.068Z,46.03
2018-11-11T17:22:42.052Z,52.97
2018-11-11T17:27:46.636Z,46.57
2018-11-11T17:32:51.282Z,47.30
2018-11-11T17:37:55.242Z,47.33
2018-11-11T17:42:59.860Z,54.43
2018-11-11T17:48:03.819Z,52.00
2018-11-11T17:53:08.029Z,49.30
2018-11-11T17:58:11.921Z,47.03
2018-11-11T18:03:15.848Z,38.03
2018-11-11T18:08:20.283Z,38.50
2018-11-11T18:13:24.144Z,39.50
2018-11-11T18:18:27.851Z,41.63
2018-11-11T18:23:32.129Z,66.03
2018-11-11T18:28:36.020Z,67.50
2018-11-11T18:33:39.756Z,56.17
2018-11-11T18:38:43.851Z,51.97
2018-11-11T18:43:47.774Z,48.40
2018-11-11T18:48:51.506Z,48.70
2018-11-11T18:53:55.214Z,49.17
2018-11-11T18:59:00.052Z,45.53
2018-11-11T19:04:05.489Z,68.87
2018-11-11T19:09:11.753Z,78.30
2018-11-11T19:14:16.343Z,68.77
2018-11-11T19:19:20.613Z,62.77
2018-11-11T19:24:24.611Z,90.50
2018-11-11T19:29:28.235Z,104.53
2018-11-11T19:34:31.823Z,94.63
2018-11-11T19:39:36.857Z,105.40
2018-11-11T19:44:40.656Z,93.13
2018-11-11T19:49:44.683Z,84.23
2018-11-11T19:54:49.412Z,79.50
2018-11-11T19:59:53.366Z,78.83
2018-11-11T20:04:56.993Z,90.60
2018-11-11T20:10:00.494Z,85.13
2018-11-11T20:15:04.366Z,75.77
2018-11-11T20:20:08.837Z,78.33
2018-11-11T20:25:13.602Z,60.50
2018-11-11T20:30:20.283Z,71.80
2018-11-11T20:35:26.512Z,73.10
2018-11-11T20:40:30.377Z,70.67
2018-11-11T20:45:34.534Z,69.90
2018-11-11T20:50:39.702Z,71.50
2018-11-11T20:55:44.141Z,62.20
2018-11-11T21:00:47.682Z,76.00
2018-11-11T21:05:51.536Z,72.67
2018-11-11T21:10:55.415Z,77.57
2018-11-11T21:15:59.581Z,92.70
2018-11-11T21:21:03.185Z,74.33
2018-11-11T21:26:07.636Z,78.53
2018-11-11T21:31:11.718Z,59.47
2018-11-11T21:36:15.257Z,59.37
2018-11-11T21:41:18.807Z,60.50
2018-11-11T21:46:22.839Z,73.43
2018-11-11T21:51:26.845Z,79.60
2018-11-11T21:56:30.683Z,84.33
2018-11-11T22:01:34.184Z,93.67
2018-11-11T22:06:38.398Z,63.37
2018-11-11T22:11:42.053Z,58.00
2018-11-11T22:16:45.859Z,63.13
2018-11-11T22:21:50.096Z,64.57
2018-11-11T22:26:53.864Z,53.30
2018-11-11T22:31:57.522Z,54.50
2018-11-11T22:37:01.748Z,46.33
2018-11-11T22:42:06.107Z,44.27
2018-11-11T22:47:09.929Z,38.10
2018-11-11T22:52:15.132Z,40.57
2018-11-11T22:57:19.118Z,38.73
2018-11-11T23:02:23.182Z,50.53
2018-11-11T23:07:27.294Z,51.20
2018-11-11T23:12:31.470Z,61.77
2018-11-11T23:17:35.725Z,71.17
2018-11-11T23:22:40.208Z,50.63
2018-11-11T23:27:43.953Z,47.63
2018-11-11T23:32:48.516Z,44.87
2018-11-11T23:37:52.679Z,49.73
2018-11-11T23:42:56.855Z,49.33
2018-11-11T23:48:00.693Z,72.53
2018-11-11T23:53:04.650Z,64.17
2018-11-11T23:58:08.530Z,69.47
